sensor_id;sensor_type;location;lat;lon;timestamp;temperature;humidity
24614;DHT22;12760;46.296;25.290;2023-07-30T00:01:58;20.40;99.90
24614;DHT22;12760;46.296;25.290;2023-07-30T00:04:24;20.40;99.90
24614;DHT22;12760;46.296;25.290;2023-07-30T00:06:50;20.40;99.90
24614;DHT22;12760;46.296;25.290;2023-07-30T00:09:16;20.40;99.90
24614;DHT22;12760;46.296;25.290;2023-07-30T00:11:42;20.30;99.90
24614;DHT22;12760;46.296;25.290;2023-07-30T00:14:07;20.30;99.90
24614;DHT22;12760;46.296;25.290;2023-07-30T00:16:33;20.30;99.90
24614;DHT22;12760;46.296;25.290;2023-07-30T00:18:59;20.40;99.90
24614;DHT22;12760;46.296;25.290;2023-07-30T00:21:25;20.30;99.90
24614;DHT22;12760;46.296;25.290;2023-07-30T00:23:50;20.20;99.90
24614;DHT22;12760;46.296;25.290;2023-07-30T00:26:16;20.20;99.90
24614;DHT22;12760;46.296;25.290;2023-07-30T00:28:42;20.10;99.90
24614;DHT22;12760;46.296;25.290;2023-07-30T00:31:07;20.00;99.90
24614;DHT22;12760;46.296;25.290;2023-07-30T00:33:33;19.90;99.90
24614;DHT22;12760;46.296;25.290;2023-07-30T00:35:59;20.00;99.90
24614;DHT22;12760;46.296;25.290;2023-07-30T00:38:24;20.00;99.90
24614;DHT22;12760;46.296;25.290;2023-07-30T00:40:50;20.10;99.90
24614;DHT22;12760;46.296;25.290;2023-07-30T00:43:16;20.10;99.90
24614;DHT22;12760;46.296;25.290;2023-07-30T00:45:43;20.00;99.90
24614;DHT22;12760;46.296;25.290;2023-07-30T00:48:10;20.00;99.90
24614;DHT22;12760;46.296;25.290;2023-07-30T00:50:38;20.00;99.90
24614;DHT22;12760;46.296;25.290;2023-07-30T00:53:04;19.90;99.90
24614;DHT22;12760;46.296;25.290;2023-07-30T00:55:31;19.80;99.90
24614;DHT22;12760;46.296;25.290;2023-07-30T00:57:57;19.80;99.90
24614;DHT22;12760;46.296;25.290;2023-07-30T01:00:23;19.80;99.90
24614;DHT22;12760;46.296;25.290;2023-07-30T01:02:51;19.90;99.90
24614;DHT22;12760;46.296;25.290;2023-07-30T01:05:17;19.90;99.90
24614;DHT22;12760;46.296;25.290;2023-07-30T01:07:43;19.80;99.90
24614;DHT22;12760;46.296;25.290;2023-07-30T01:10:09;19.80;99.90
24614;DHT22;12760;46.296;25.290;2023-07-30T01:12:35;19.80;99.90
24614;DHT22;12760;46.296;25.290;2023-07-30T01:15:03;19.80;99.90
24614;DHT22;12760;46.296;25.290;2023-07-30T01:17:29;19.60;99.90
24614;DHT22;12760;46.296;25.290;2023-07-30T01:19:55;19.60;99.90
24614;DHT22;12760;46.296;25.290;2023-07-30T01:22:22;19.60;99.90
24614;DHT22;12760;46.296;25.290;2023-07-30T01:24:48;19.60;99.90
24614;DHT22;12760;46.296;25.290;2023-07-30T01:27:28;19.70;99.90
24614;DHT22;12760;46.296;25.290;2023-07-30T01:30:08;19.70;99.90
24614;DHT22;12760;46.296;25.290;2023-07-30T01:32:36;19.70;99.90
24614;DHT22;12760;46.296;25.290;2023-07-30T01:35:04;19.70;99.90
24614;DHT22;12760;46.296;25.290;2023-07-30T01:37:33;19.70;99.90
24614;DHT22;12760;46.296;25.290;2023-07-30T01:40:00;19.60;99.90
24614;DHT22;12760;46.296;25.290;2023-07-30T01:42:30;19.60;99.90
24614;DHT22;12760;46.296;25.290;2023-07-30T01:44:55;19.50;99.90
24614;DHT22;12760;46.296;25.290;2023-07-30T01:47:21;19.50;99.90
24614;DHT22;12760;46.296;25.290;2023-07-30T01:49:47;19.40;99.90
24614;DHT22;12760;46.296;25.290;2023-07-30T01:52:12;19.40;99.90
24614;DHT22;12760;46.296;25.290;2023-07-30T01:54:38;19.30;99.90
24614;DHT22;12760;46.296;25.290;2023-07-30T01:57:04;19.30;99.90
24614;DHT22;12760;46.296;25.290;2023-07-30T01:59:30;19.30;99.90
24614;DHT22;12760;46.296;25.290;2023-07-30T02:01:55;19.30;99.90
24614;DHT22;12760;46.296;25.290;2023-07-30T02:04:21;19.30;99.90
24614;DHT22;12760;46.296;25.290;2023-07-30T02:06:47;19.30;99.90
24614;DHT22;12760;46.296;25.290;2023-07-30T02:09:12;19.30;99.90
24614;DHT22;12760;46.296;25.290;2023-07-30T02:11:38;19.20;99.90
24614;DHT22;12760;46.296;25.290;2023-07-30T02:14:04;19.20;99.90
24614;DHT22;12760;46.296;25.290;2023-07-30T02:16:29;19.20;99.90
24614;DHT22;12760;46.296;25.290;2023-07-30T02:18:55;19.20;99.90
24614;DHT22;12760;46.296;25.290;2023-07-30T02:21:21;19.20;99.90
24614;DHT22;12760;46.296;25.290;2023-07-30T02:23:46;19.20;99.90
24614;DHT22;12760;46.296;25.290;2023-07-30T02:26:12;19.20;99.90
24614;DHT22;12760;46.296;25.290;2023-07-30T02:28:38;19.20;99.90
24614;DHT22;12760;46.296;25.290;2023-07-30T02:31:03;19.20;99.90
24614;DHT22;12760;46.296;25.290;2023-07-30T02:33:29;19.20;99.90
24614;DHT22;12760;46.296;25.290;2023-07-30T02:35:55;19.00;99.90
24614;DHT22;12760;46.296;25.290;2023-07-30T02:38:20;19.10;99.90
24614;DHT22;12760;46.296;25.290;2023-07-30T02:40:46;19.00;99.90
24614;DHT22;12760;46.296;25.290;2023-07-30T02:43:12;18.90;99.90
24614;DHT22;12760;46.296;25.290;2023-07-30T02:45:38;18.90;99.90
24614;DHT22;12760;46.296;25.290;2023-07-30T02:48:04;18.90;99.90
24614;DHT22;12760;46.296;25.290;2023-07-30T02:50:30;19.00;99.90
24614;DHT22;12760;46.296;25.290;2023-07-30T02:52:56;19.10;99.90
24614;DHT22;12760;46.296;25.290;2023-07-30T02:55:21;19.10;99.90
24614;DHT22;12760;46.296;25.290;2023-07-30T02:57:47;19.10;99.90
24614;DHT22;12760;46.296;25.290;2023-07-30T03:00:13;19.10;99.90
24614;DHT22;12760;46.296;25.290;2023-07-30T03:02:40;19.00;99.90
24614;DHT22;12760;46.296;25.290;2023-07-30T03:05:06;18.90;99.90
24614;DHT22;12760;46.296;25.290;2023-07-30T03:07:32;18.90;99.90
24614;DHT22;12760;46.296;25.290;2023-07-30T03:09:57;18.90;99.90
24614;DHT22;12760;46.296;25.290;2023-07-30T03:12:23;19.00;99.90
24614;DHT22;12760;46.296;25.290;2023-07-30T03:14:49;19.00;99.90
24614;DHT22;12760;46.296;25.290;2023-07-30T03:17:14;18.90;99.90
24614;DHT22;12760;46.296;25.290;2023-07-30T03:19:40;19.00;99.90
24614;DHT22;12760;46.296;25.290;2023-07-30T03:22:06;19.00;99.90
24614;DHT22;12760;46.296;25.290;2023-07-30T03:24:31;19.10;99.90
24614;DHT22;12760;46.296;25.290;2023-07-30T03:26:57;19.10;99.90
24614;DHT22;12760;46.296;25.290;2023-07-30T03:29:23;19.10;99.90
24614;DHT22;12760;46.296;25.290;2023-07-30T03:31:48;19.20;99.90
24614;DHT22;12760;46.296;25.290;2023-07-30T03:34:14;19.20;99.90
24614;DHT22;12760;46.296;25.290;2023-07-30T03:36:40;19.10;99.90
24614;DHT22;12760;46.296;25.290;2023-07-30T03:39:05;19.00;99.90
24614;DHT22;12760;46.296;25.290;2023-07-30T03:41:31;19.00;99.90
24614;DHT22;12760;46.296;25.290;2023-07-30T03:43:57;19.00;99.90
24614;DHT22;12760;46.296;25.290;2023-07-30T03:46:23;19.00;99.90
24614;DHT22;12760;46.296;25.290;2023-07-30T03:48:48;19.10;99.90
24614;DHT22;12760;46.296;25.290;2023-07-30T03:51:14;19.00;99.90
24614;DHT22;12760;46.296;25.290;2023-07-30T03:53:40;18.90;99.90
24614;DHT22;12760;46.296;25.290;2023-07-30T03:56:05;18.80;99.90
24614;DHT22;12760;46.296;25.290;2023-07-30T03:58:31;18.80;99.90
24614;DHT22;12760;46.296;25.290;2023-07-30T04:00:57;18.90;99.90
24614;DHT22;12760;46.296;25.290;2023-07-30T04:03:23;18.90;99.90
24614;DHT22;12760;46.296;25.290;2023-07-30T04:05:48;18.90;99.90
24614;DHT22;12760;46.296;25.290;2023-07-30T04:08:15;19.00;99.90
24614;DHT22;12760;46.296;25.290;2023-07-30T04:10:40;18.90;99.90
24614;DHT22;12760;46.296;25.290;2023-07-30T04:13:06;18.90;99.90
24614;DHT22;12760;46.296;25.290;2023-07-30T04:15:33;18.90;99.90
24614;DHT22;12760;46.296;25.290;2023-07-30T04:17:59;18.90;99.90
24614;DHT22;12760;46.296;25.290;2023-07-30T04:20:25;19.00;99.90
24614;DHT22;12760;46.296;25.290;2023-07-30T04:22:51;19.00;99.90
24614;DHT22;12760;46.296;25.290;2023-07-30T04:25:17;19.00;99.90
24614;DHT22;12760;46.296;25.290;2023-07-30T04:27:42;19.10;99.90
24614;DHT22;12760;46.296;25.290;2023-07-30T04:30:08;19.10;99.90
24614;DHT22;12760;46.296;25.290;2023-07-30T04:32:34;19.20;99.90
24614;DHT22;12760;46.296;25.290;2023-07-30T04:35:01;19.20;99.90
24614;DHT22;12760;46.296;25.290;2023-07-30T04:37:28;19.30;99.90
24614;DHT22;12760;46.296;25.290;2023-07-30T04:39:54;19.20;99.90
24614;DHT22;12760;46.296;25.290;2023-07-30T04:42:20;19.20;99.90
24614;DHT22;12760;46.296;25.290;2023-07-30T04:44:45;19.20;99.90
24614;DHT22;12760;46.296;25.290;2023-07-30T04:47:11;19.20;99.90
24614;DHT22;12760;46.296;25.290;2023-07-30T04:49:37;19.20;99.90
24614;DHT22;12760;46.296;25.290;2023-07-30T04:52:09;19.30;99.90
24614;DHT22;12760;46.296;25.290;2023-07-30T04:54:35;19.10;99.90
24614;DHT22;12760;46.296;25.290;2023-07-30T04:57:04;19.10;99.90
24614;DHT22;12760;46.296;25.290;2023-07-30T04:59:31;19.20;99.90
24614;DHT22;12760;46.296;25.290;2023-07-30T05:01:59;19.10;99.90
24614;DHT22;12760;46.296;25.290;2023-07-30T05:04:25;19.10;99.90
24614;DHT22;12760;46.296;25.290;2023-07-30T05:06:51;19.10;99.90
24614;DHT22;12760;46.296;25.290;2023-07-30T05:09:17;19.20;99.90
24614;DHT22;12760;46.296;25.290;2023-07-30T05:11:42;19.30;99.90
24614;DHT22;12760;46.296;25.290;2023-07-30T05:14:08;19.40;99.90
24614;DHT22;12760;46.296;25.290;2023-07-30T05:16:34;19.50;99.90
24614;DHT22;12760;46.296;25.290;2023-07-30T05:19:01;19.70;99.90
24614;DHT22;12760;46.296;25.290;2023-07-30T05:21:27;19.90;99.90
24614;DHT22;12760;46.296;25.290;2023-07-30T05:23:53;19.90;99.90
24614;DHT22;12760;46.296;25.290;2023-07-30T05:26:19;19.90;99.90
24614;DHT22;12760;46.296;25.290;2023-07-30T05:28:44;20.00;99.90
24614;DHT22;12760;46.296;25.290;2023-07-30T05:31:10;20.10;99.90
24614;DHT22;12760;46.296;25.290;2023-07-30T05:33:36;20.20;99.90
24614;DHT22;12760;46.296;25.290;2023-07-30T05:36:02;20.20;99.90
24614;DHT22;12760;46.296;25.290;2023-07-30T05:38:27;20.20;99.90
24614;DHT22;12760;46.296;25.290;2023-07-30T05:40:53;20.20;99.90
24614;DHT22;12760;46.296;25.290;2023-07-30T05:43:19;20.40;99.90
24614;DHT22;12760;46.296;25.290;2023-07-30T05:45:44;20.50;99.90
24614;DHT22;12760;46.296;25.290;2023-07-30T05:48:10;20.60;99.90
24614;DHT22;12760;46.296;25.290;2023-07-30T05:50:36;20.70;99.90
24614;DHT22;12760;46.296;25.290;2023-07-30T05:53:02;20.90;99.90
24614;DHT22;12760;46.296;25.290;2023-07-30T05:55:27;21.10;99.90
24614;DHT22;12760;46.296;25.290;2023-07-30T05:57:53;21.40;99.90
24614;DHT22;12760;46.296;25.290;2023-07-30T06:00:19;21.60;99.90
24614;DHT22;12760;46.296;25.290;2023-07-30T06:02:45;21.70;99.90
24614;DHT22;12760;46.296;25.290;2023-07-30T06:05:10;21.80;99.90
24614;DHT22;12760;46.296;25.290;2023-07-30T06:07:36;22.00;99.90
24614;DHT22;12760;46.296;25.290;2023-07-30T06:10:02;22.00;99.90
24614;DHT22;12760;46.296;25.290;2023-07-30T06:12:28;22.20;99.90
24614;DHT22;12760;46.296;25.290;2023-07-30T06:14:54;22.30;99.90
24614;DHT22;12760;46.296;25.290;2023-07-30T06:17:19;22.50;99.90
24614;DHT22;12760;46.296;25.290;2023-07-30T06:19:45;22.60;99.90
24614;DHT22;12760;46.296;25.290;2023-07-30T06:22:11;22.80;99.90
24614;DHT22;12760;46.296;25.290;2023-07-30T06:24:36;22.90;99.90
24614;DHT22;12760;46.296;25.290;2023-07-30T06:27:02;22.90;99.90
24614;DHT22;12760;46.296;25.290;2023-07-30T06:29:28;22.90;99.90
24614;DHT22;12760;46.296;25.290;2023-07-30T06:31:54;22.90;99.90
24614;DHT22;12760;46.296;25.290;2023-07-30T06:34:19;23.00;99.90
24614;DHT22;12760;46.296;25.290;2023-07-30T06:36:45;23.00;99.90
24614;DHT22;12760;46.296;25.290;2023-07-30T06:39:11;23.10;99.90
24614;DHT22;12760;46.296;25.290;2023-07-30T06:41:36;23.20;99.90
24614;DHT22;12760;46.296;25.290;2023-07-30T06:44:02;23.20;99.90
24614;DHT22;12760;46.296;25.290;2023-07-30T06:46:28;23.30;99.90
24614;DHT22;12760;46.296;25.290;2023-07-30T06:48:54;23.30;99.90
24614;DHT22;12760;46.296;25.290;2023-07-30T06:51:19;23.40;99.90
24614;DHT22;12760;46.296;25.290;2023-07-30T06:53:46;23.40;99.90
24614;DHT22;12760;46.296;25.290;2023-07-30T06:56:11;23.50;99.90
24614;DHT22;12760;46.296;25.290;2023-07-30T06:58:37;23.60;99.90
24614;DHT22;12760;46.296;25.290;2023-07-30T07:01:02;23.80;99.90
24614;DHT22;12760;46.296;25.290;2023-07-30T07:03:28;23.90;99.90
24614;DHT22;12760;46.296;25.290;2023-07-30T07:05:55;24.10;99.90
24614;DHT22;12760;46.296;25.290;2023-07-30T07:08:21;24.20;99.90
24614;DHT22;12760;46.296;25.290;2023-07-30T07:10:47;24.30;99.90
24614;DHT22;12760;46.296;25.290;2023-07-30T07:13:13;24.60;99.90
24614;DHT22;12760;46.296;25.290;2023-07-30T07:15:41;24.80;99.90
24614;DHT22;12760;46.296;25.290;2023-07-30T07:18:07;25.00;99.90
24614;DHT22;12760;46.296;25.290;2023-07-30T07:20:33;25.20;99.90
24614;DHT22;12760;46.296;25.290;2023-07-30T07:22:59;25.40;99.90
24614;DHT22;12760;46.296;25.290;2023-07-30T07:25:24;25.50;99.90
24614;DHT22;12760;46.296;25.290;2023-07-30T07:27:50;25.50;99.90
24614;DHT22;12760;46.296;25.290;2023-07-30T07:30:16;25.70;99.90
24614;DHT22;12760;46.296;25.290;2023-07-30T07:32:41;25.90;99.90
24614;DHT22;12760;46.296;25.290;2023-07-30T07:35:08;26.00;99.90
24614;DHT22;12760;46.296;25.290;2023-07-30T07:37:33;26.10;99.90
24614;DHT22;12760;46.296;25.290;2023-07-30T07:39:59;26.20;99.90
24614;DHT22;12760;46.296;25.290;2023-07-30T07:42:25;26.50;99.90
24614;DHT22;12760;46.296;25.290;2023-07-30T07:44:50;26.80;99.90
24614;DHT22;12760;46.296;25.290;2023-07-30T07:47:16;27.00;99.90
24614;DHT22;12760;46.296;25.290;2023-07-30T07:49:42;27.30;99.90
24614;DHT22;12760;46.296;25.290;2023-07-30T07:52:08;27.50;99.90
24614;DHT22;12760;46.296;25.290;2023-07-30T07:54:34;27.50;99.90
24614;DHT22;12760;46.296;25.290;2023-07-30T07:57:00;27.60;99.90
24614;DHT22;12760;46.296;25.290;2023-07-30T07:59:25;27.70;99.90
24614;DHT22;12760;46.296;25.290;2023-07-30T08:01:53;27.90;99.90
24614;DHT22;12760;46.296;25.290;2023-07-30T08:04:19;28.10;99.90
24614;DHT22;12760;46.296;25.290;2023-07-30T08:06:47;28.20;99.90
24614;DHT22;12760;46.296;25.290;2023-07-30T08:09:12;28.30;99.90
24614;DHT22;12760;46.296;25.290;2023-07-30T08:11:38;28.50;99.90
24614;DHT22;12760;46.296;25.290;2023-07-30T08:14:04;28.70;99.90
24614;DHT22;12760;46.296;25.290;2023-07-30T08:16:30;28.70;99.90
24614;DHT22;12760;46.296;25.290;2023-07-30T08:18:55;28.80;99.90
24614;DHT22;12760;46.296;25.290;2023-07-30T08:21:21;28.90;99.90
24614;DHT22;12760;46.296;25.290;2023-07-30T08:23:47;29.10;99.90
24614;DHT22;12760;46.296;25.290;2023-07-30T08:26:13;29.30;99.90
24614;DHT22;12760;46.296;25.290;2023-07-30T08:28:38;29.40;99.90
24614;DHT22;12760;46.296;25.290;2023-07-30T08:31:05;29.40;99.90
24614;DHT22;12760;46.296;25.290;2023-07-30T08:33:31;29.50;99.90
24614;DHT22;12760;46.296;25.290;2023-07-30T08:35:59;29.30;99.90
24614;DHT22;12760;46.296;25.290;2023-07-30T08:38:25;29.10;99.90
24614;DHT22;12760;46.296;25.290;2023-07-30T08:40:51;29.00;99.90
24614;DHT22;12760;46.296;25.290;2023-07-30T08:43:20;29.00;99.90
24614;DHT22;12760;46.296;25.290;2023-07-30T08:45:46;29.10;99.90
24614;DHT22;12760;46.296;25.290;2023-07-30T08:48:11;29.40;99.90
24614;DHT22;12760;46.296;25.290;2023-07-30T08:50:37;29.60;99.90
24614;DHT22;12760;46.296;25.290;2023-07-30T08:53:04;29.70;99.90
24614;DHT22;12760;46.296;25.290;2023-07-30T08:55:34;29.80;99.90
24614;DHT22;12760;46.296;25.290;2023-07-30T08:58:04;30.00;99.90
24614;DHT22;12760;46.296;25.290;2023-07-30T09:00:37;29.90;99.90
24614;DHT22;12760;46.296;25.290;2023-07-30T09:03:04;30.10;99.90
24614;DHT22;12760;46.296;25.290;2023-07-30T09:05:30;30.10;99.90
24614;DHT22;12760;46.296;25.290;2023-07-30T09:07:57;29.70;99.90
24614;DHT22;12760;46.296;25.290;2023-07-30T09:10:23;29.80;99.90
24614;DHT22;12760;46.296;25.290;2023-07-30T09:12:56;30.00;99.90
24614;DHT22;12760;46.296;25.290;2023-07-30T09:15:33;30.30;99.90
24614;DHT22;12760;46.296;25.290;2023-07-30T09:18:00;30.50;99.90
24614;DHT22;12760;46.296;25.290;2023-07-30T09:20:26;30.60;99.90
24614;DHT22;12760;46.296;25.290;2023-07-30T09:22:52;30.20;99.90
24614;DHT22;12760;46.296;25.290;2023-07-30T09:25:21;30.20;99.90
24614;DHT22;12760;46.296;25.290;2023-07-30T09:27:52;30.20;99.90
24614;DHT22;12760;46.296;25.290;2023-07-30T09:30:24;30.00;99.90
24614;DHT22;12760;46.296;25.290;2023-07-30T09:32:57;30.20;99.90
24614;DHT22;12760;46.296;25.290;2023-07-30T09:35:24;30.50;99.90
24614;DHT22;12760;46.296;25.290;2023-07-30T09:37:58;30.60;99.90
24614;DHT22;12760;46.296;25.290;2023-07-30T09:40:36;30.80;99.90
24614;DHT22;12760;46.296;25.290;2023-07-30T09:43:04;31.00;99.90
24614;DHT22;12760;46.296;25.290;2023-07-30T09:45:34;31.10;99.90
24614;DHT22;12760;46.296;25.290;2023-07-30T09:48:05;31.20;99.90
24614;DHT22;12760;46.296;25.290;2023-07-30T09:50:31;31.20;99.90
24614;DHT22;12760;46.296;25.290;2023-07-30T09:53:02;31.20;99.90
24614;DHT22;12760;46.296;25.290;2023-07-30T09:55:28;31.20;99.90
24614;DHT22;12760;46.296;25.290;2023-07-30T09:57:54;31.20;99.90
24614;DHT22;12760;46.296;25.290;2023-07-30T10:00:20;31.40;99.90
24614;DHT22;12760;46.296;25.290;2023-07-30T10:02:46;31.40;99.90
24614;DHT22;12760;46.296;25.290;2023-07-30T10:05:17;31.00;99.90
24614;DHT22;12760;46.296;25.290;2023-07-30T10:08:11;30.80;99.90
24614;DHT22;12760;46.296;25.290;2023-07-30T10:10:38;30.90;99.90
24614;DHT22;12760;46.296;25.290;2023-07-30T10:13:07;30.80;99.90
24614;DHT22;12760;46.296;25.290;2023-07-30T10:15:35;31.00;99.90
24614;DHT22;12760;46.296;25.290;2023-07-30T10:18:01;31.30;99.90
24614;DHT22;12760;46.296;25.290;2023-07-30T10:20:28;31.40;99.90
24614;DHT22;12760;46.296;25.290;2023-07-30T10:22:57;31.50;99.60
24614;DHT22;12760;46.296;25.290;2023-07-30T10:27:53;31.40;99.60
24614;DHT22;12760;46.296;25.290;2023-07-30T10:30:20;31.10;99.70
24614;DHT22;12760;46.296;25.290;2023-07-30T10:40:42;30.30;99.90
24614;DHT22;12760;46.296;25.290;2023-07-30T10:43:28;30.20;99.90
24614;DHT22;12760;46.296;25.290;2023-07-30T10:45:53;30.60;99.90
24614;DHT22;12760;46.296;25.290;2023-07-30T10:48:19;30.70;99.90
24614;DHT22;12760;46.296;25.290;2023-07-30T10:50:54;30.90;99.30
24614;DHT22;12760;46.296;25.290;2023-07-30T10:53:20;31.00;99.10
24614;DHT22;12760;46.296;25.290;2023-07-30T10:55:46;31.00;98.50
24614;DHT22;12760;46.296;25.290;2023-07-30T10:58:11;31.20;98.90
24614;DHT22;12760;46.296;25.290;2023-07-30T11:00:39;31.20;98.90
24614;DHT22;12760;46.296;25.290;2023-07-30T11:03:04;31.30;98.60
24614;DHT22;12760;46.296;25.290;2023-07-30T11:05:30;31.20;97.70
24614;DHT22;12760;46.296;25.290;2023-07-30T11:07:56;31.20;98.80
24614;DHT22;12760;46.296;25.290;2023-07-30T11:10:22;31.40;98.00
24614;DHT22;12760;46.296;25.290;2023-07-30T11:12:48;31.50;97.70
24614;DHT22;12760;46.296;25.290;2023-07-30T11:15:18;31.60;97.70
24614;DHT22;12760;46.296;25.290;2023-07-30T11:17:43;31.40;97.70
24614;DHT22;12760;46.296;25.290;2023-07-30T11:20:26;31.60;98.20
24614;DHT22;12760;46.296;25.290;2023-07-30T11:22:55;31.60;98.40
24614;DHT22;12760;46.296;25.290;2023-07-30T11:25:21;31.80;97.90
24614;DHT22;12760;46.296;25.290;2023-07-30T11:27:50;31.90;98.10
24614;DHT22;12760;46.296;25.290;2023-07-30T11:30:17;31.80;98.70
24614;DHT22;12760;46.296;25.290;2023-07-30T11:32:43;31.80;98.10
24614;DHT22;12760;46.296;25.290;2023-07-30T11:35:14;31.70;98.80
24614;DHT22;12760;46.296;25.290;2023-07-30T11:37:41;31.60;99.20
24614;DHT22;12760;46.296;25.290;2023-07-30T11:40:11;31.50;99.00
24614;DHT22;12760;46.296;25.290;2023-07-30T11:43:09;31.50;99.70
24614;DHT22;12760;46.296;25.290;2023-07-30T11:49:32;31.50;98.80
24614;DHT22;12760;46.296;25.290;2023-07-30T11:52:09;31.50;98.20
24614;DHT22;12760;46.296;25.290;2023-07-30T11:54:34;31.60;98.60
24614;DHT22;12760;46.296;25.290;2023-07-30T11:57:00;31.60;97.90
24614;DHT22;12760;46.296;25.290;2023-07-30T11:59:26;31.50;97.70
24614;DHT22;12760;46.296;25.290;2023-07-30T12:01:52;31.50;98.20
24614;DHT22;12760;46.296;25.290;2023-07-30T12:04:18;31.50;98.60
24614;DHT22;12760;46.296;25.290;2023-07-30T12:06:46;31.50;98.60
24614;DHT22;12760;46.296;25.290;2023-07-30T12:09:17;31.40;98.40
24614;DHT22;12760;46.296;25.290;2023-07-30T12:11:52;31.20;98.00
24614;DHT22;12760;46.296;25.290;2023-07-30T12:14:21;31.30;99.30
24614;DHT22;12760;46.296;25.290;2023-07-30T12:16:47;31.30;98.80
24614;DHT22;12760;46.296;25.290;2023-07-30T12:19:13;31.50;98.70
24614;DHT22;12760;46.296;25.290;2023-07-30T12:21:39;31.60;96.90
24614;DHT22;12760;46.296;25.290;2023-07-30T12:24:05;31.50;97.50
24614;DHT22;12760;46.296;25.290;2023-07-30T12:26:31;31.50;97.80
24614;DHT22;12760;46.296;25.290;2023-07-30T12:28:56;31.50;97.70
24614;DHT22;12760;46.296;25.290;2023-07-30T12:31:22;31.50;97.30
24614;DHT22;12760;46.296;25.290;2023-07-30T12:33:48;31.50;97.30
24614;DHT22;12760;46.296;25.290;2023-07-30T12:36:14;31.60;98.20
24614;DHT22;12760;46.296;25.290;2023-07-30T12:38:40;31.60;97.20
24614;DHT22;12760;46.296;25.290;2023-07-30T12:41:05;31.50;96.80
24614;DHT22;12760;46.296;25.290;2023-07-30T12:43:31;31.50;97.40
24614;DHT22;12760;46.296;25.290;2023-07-30T12:45:57;31.50;96.90
24614;DHT22;12760;46.296;25.290;2023-07-30T12:48:22;31.40;97.60
24614;DHT22;12760;46.296;25.290;2023-07-30T12:50:48;31.50;97.50
24614;DHT22;12760;46.296;25.290;2023-07-30T12:53:14;31.50;96.40
24614;DHT22;12760;46.296;25.290;2023-07-30T12:55:40;31.50;96.30
24614;DHT22;12760;46.296;25.290;2023-07-30T12:58:06;31.40;97.10
24614;DHT22;12760;46.296;25.290;2023-07-30T13:00:33;31.40;97.10
24614;DHT22;12760;46.296;25.290;2023-07-30T13:02:58;31.30;96.80
24614;DHT22;12760;46.296;25.290;2023-07-30T13:05:25;31.20;96.80
24614;DHT22;12760;46.296;25.290;2023-07-30T13:07:51;31.30;96.80
24614;DHT22;12760;46.296;25.290;2023-07-30T13:10:16;31.30;96.20
24614;DHT22;12760;46.296;25.290;2023-07-30T13:12:42;31.50;97.10
24614;DHT22;12760;46.296;25.290;2023-07-30T13:15:08;31.60;96.50
24614;DHT22;12760;46.296;25.290;2023-07-30T13:17:34;31.30;95.90
24614;DHT22;12760;46.296;25.290;2023-07-30T13:20:00;31.40;96.30
24614;DHT22;12760;46.296;25.290;2023-07-30T13:22:26;31.40;97.10
24614;DHT22;12760;46.296;25.290;2023-07-30T13:24:52;31.50;96.40
24614;DHT22;12760;46.296;25.290;2023-07-30T13:27:18;31.60;95.80
24614;DHT22;12760;46.296;25.290;2023-07-30T13:29:44;31.70;95.90
24614;DHT22;12760;46.296;25.290;2023-07-30T13:32:10;31.70;95.40
24614;DHT22;12760;46.296;25.290;2023-07-30T13:34:35;31.50;95.50
24614;DHT22;12760;46.296;25.290;2023-07-30T13:37:01;31.60;95.40
24614;DHT22;12760;46.296;25.290;2023-07-30T13:39:27;31.50;95.70
24614;DHT22;12760;46.296;25.290;2023-07-30T13:41:53;31.50;96.50
24614;DHT22;12760;46.296;25.290;2023-07-30T13:44:20;31.50;97.00
24614;DHT22;12760;46.296;25.290;2023-07-30T13:46:46;31.40;96.80
24614;DHT22;12760;46.296;25.290;2023-07-30T13:49:11;31.30;97.10
24614;DHT22;12760;46.296;25.290;2023-07-30T13:51:37;31.30;97.20
24614;DHT22;12760;46.296;25.290;2023-07-30T13:54:03;31.40;97.20
24614;DHT22;12760;46.296;25.290;2023-07-30T13:56:29;31.40;97.50
24614;DHT22;12760;46.296;25.290;2023-07-30T13:58:55;31.30;97.30
24614;DHT22;12760;46.296;25.290;2023-07-30T14:01:21;31.20;96.90
24614;DHT22;12760;46.296;25.290;2023-07-30T14:03:47;31.20;97.50
24614;DHT22;12760;46.296;25.290;2023-07-30T14:06:13;31.20;97.00
24614;DHT22;12760;46.296;25.290;2023-07-30T14:08:38;31.20;97.70
24614;DHT22;12760;46.296;25.290;2023-07-30T14:11:04;31.20;97.20
24614;DHT22;12760;46.296;25.290;2023-07-30T14:13:30;31.20;97.60
24614;DHT22;12760;46.296;25.290;2023-07-30T14:15:56;31.20;96.90
24614;DHT22;12760;46.296;25.290;2023-07-30T14:18:24;31.10;97.30
24614;DHT22;12760;46.296;25.290;2023-07-30T14:20:49;31.10;97.00
24614;DHT22;12760;46.296;25.290;2023-07-30T14:23:15;31.10;97.00
24614;DHT22;12760;46.296;25.290;2023-07-30T14:25:41;31.00;98.00
24614;DHT22;12760;46.296;25.290;2023-07-30T14:28:06;31.00;98.00
24614;DHT22;12760;46.296;25.290;2023-07-30T14:30:32;31.00;98.00
24614;DHT22;12760;46.296;25.290;2023-07-30T14:32:59;31.00;98.20
24614;DHT22;12760;46.296;25.290;2023-07-30T14:35:25;31.00;97.60
24614;DHT22;12760;46.296;25.290;2023-07-30T14:37:51;31.00;97.70
24614;DHT22;12760;46.296;25.290;2023-07-30T14:40:16;31.00;97.90
24614;DHT22;12760;46.296;25.290;2023-07-30T14:42:43;31.00;98.40
24614;DHT22;12760;46.296;25.290;2023-07-30T14:45:09;31.00;98.40
24614;DHT22;12760;46.296;25.290;2023-07-30T14:47:35;31.00;98.70
24614;DHT22;12760;46.296;25.290;2023-07-30T14:50:01;30.90;98.60
24614;DHT22;12760;46.296;25.290;2023-07-30T14:52:27;30.90;99.00
24614;DHT22;12760;46.296;25.290;2023-07-30T14:54:53;30.90;99.50
24614;DHT22;12760;46.296;25.290;2023-07-30T14:57:19;30.90;99.40
24614;DHT22;12760;46.296;25.290;2023-07-30T14:59:45;30.80;99.90
24614;DHT22;12760;46.296;25.290;2023-07-30T15:02:11;30.80;99.40
24614;DHT22;12760;46.296;25.290;2023-07-30T15:04:38;30.70;99.60
24614;DHT22;12760;46.296;25.290;2023-07-30T15:07:04;30.70;99.80
24614;DHT22;12760;46.296;25.290;2023-07-30T15:09:30;30.60;99.60
24614;DHT22;12760;46.296;25.290;2023-07-30T15:12:01;30.60;99.90
24614;DHT22;12760;46.296;25.290;2023-07-30T15:14:27;30.50;99.90
24614;DHT22;12760;46.296;25.290;2023-07-30T15:16:53;30.50;99.90
24614;DHT22;12760;46.296;25.290;2023-07-30T15:19:19;30.50;99.90
24614;DHT22;12760;46.296;25.290;2023-07-30T15:21:45;30.40;99.90
24614;DHT22;12760;46.296;25.290;2023-07-30T15:24:11;30.40;99.90
24614;DHT22;12760;46.296;25.290;2023-07-30T15:26:36;30.40;99.90